createdAt,value
2022-08-17T00:01:51.379Z,100008.88
2022-08-17T00:04:19.465Z,100014.47
2022-08-17T00:06:42.963Z,100008.88
2022-08-17T00:09:10.079Z,100005.63
2022-08-17T00:11:43.858Z,100006.66
2022-08-17T00:14:27.102Z,100002.44
2022-08-17T00:16:56.834Z,100001.41
2022-08-17T00:19:23.098Z,99998.22
2022-08-17T00:22:28.658Z,99988.91
2022-08-17T00:24:31.023Z,99979.66
2022-08-17T00:26:55.716Z,99987.78
2022-08-17T00:29:19.629Z,99989.66
2022-08-17T00:31:43.281Z,99981.91
2022-08-17T00:34:08.807Z,99978.94
2022-08-17T00:36:32.156Z,99981.34
2022-08-17T00:38:55.543Z,99982.28
2022-08-17T00:41:19.825Z,99975.66
2022-08-17T00:43:46.719Z,99977.81
2022-08-17T00:46:11.888Z,99973.28
2022-08-17T00:48:35.436Z,99976.16
2022-08-17T00:51:01.176Z,99977.66
2022-08-17T00:53:24.677Z,99966.38
2022-08-17T00:55:47.987Z,99973.19
2022-08-17T00:58:11.254Z,99976.81
2022-08-17T01:00:38.303Z,99976.25
2022-08-17T01:03:03.162Z,99978.88
2022-08-17T01:05:27.575Z,99978.38
2022-08-17T01:07:52.186Z,99979.69
2022-08-17T01:10:58.843Z,99984.03
2022-08-17T01:12:58.728Z,99985.19
2022-08-17T01:15:22.009Z,99984.03
2022-08-17T01:17:47.100Z,99982.16
2022-08-17T01:20:10.734Z,99974.59
2022-08-17T01:22:35.375Z,99977.91
2022-08-17T01:25:00.129Z,99974.28
2022-08-17T01:27:23.384Z,99980.84
2022-08-17T01:29:59.952Z,99983.84
2022-08-17T01:32:23.309Z,99967.91
2022-08-17T01:34:50.530Z,99966.63
2022-08-17T01:37:14.521Z,99971.22
2022-08-17T01:39:41.292Z,99969.91
2022-08-17T01:42:06.769Z,99970.72
2022-08-17T01:44:30.074Z,99971.72
2022-08-17T01:46:53.575Z,99964.00
2022-08-17T01:49:17.638Z,99965.84
2022-08-17T01:51:41.477Z,99965.84
2022-08-17T01:54:06.384Z,99961.34
2022-08-17T01:56:31.078Z,99955.00
2022-08-17T01:58:54.397Z,99962.91
2022-08-17T02:01:17.891Z,99963.56
2022-08-17T02:03:41.308Z,99964.13
2022-08-17T02:06:27.595Z,99957.66
2022-08-17T02:09:02.708Z,99948.50
2022-08-17T02:11:26.706Z,99958.81
2022-08-17T02:13:55.134Z,99954.47
2022-08-17T02:16:25.639Z,99961.53
2022-08-17T02:18:48.888Z,99953.44
2022-08-17T02:21:12.157Z,99959.56
2022-08-17T02:23:37.158Z,99961.19
2022-08-17T02:26:00.721Z,99969.72
2022-08-17T02:28:23.973Z,99964.13
2022-08-17T02:31:01.181Z,99973.59
2022-08-17T02:33:41.555Z,99974.31
2022-08-17T02:36:05.803Z,99972.78
2022-08-17T02:38:29.150Z,99970.97
2022-08-17T02:40:52.337Z,99963.81
2022-08-17T02:43:15.735Z,99969.03
2022-08-17T02:45:38.998Z,99970.69
2022-08-17T02:48:04.146Z,99972.53
2022-08-17T02:50:27.378Z,99970.84
2022-08-17T02:52:57.345Z,99982.84
2022-08-17T02:55:26.469Z,99966.16
2022-08-17T02:57:49.633Z,99970.53
2022-08-17T03:00:18.077Z,99970.66
2022-08-17T03:02:41.626Z,99967.84
2022-08-17T03:05:07.273Z,99978.50
2022-08-17T03:07:31.855Z,99985.81
2022-08-17T03:09:55.518Z,99972.78
2022-08-17T03:12:19.328Z,99981.28
2022-08-17T03:14:42.852Z,99980.38
2022-08-17T03:17:06.289Z,99976.00
2022-08-17T03:19:29.620Z,99973.47
2022-08-17T03:21:55.034Z,99979.00
2022-08-17T03:24:18.806Z,99971.97
2022-08-17T03:26:42.884Z,99977.22
2022-08-17T03:29:06.242Z,99980.09
2022-08-17T03:31:29.545Z,99982.41
2022-08-17T03:33:52.874Z,99979.28
2022-08-17T03:36:16.128Z,99982.88
2022-08-17T03:38:40.817Z,99980.38
2022-08-17T03:41:06.193Z,99988.16
2022-08-17T03:43:31.832Z,99995.44
2022-08-17T03:46:28.123Z,99998.69
2022-08-17T03:49:12.732Z,100007.38
2022-08-17T03:51:53.545Z,100010.56
2022-08-17T03:54:35.799Z,100010.94
2022-08-17T03:57:02.189Z,100018.94
2022-08-17T03:59:25.454Z,100014.13
2022-08-17T04:01:50.375Z,100024.34
2022-08-17T04:04:16.401Z,100016.56
2022-08-17T04:06:39.814Z,100022.09
2022-08-17T04:09:03.022Z,100020.28
2022-08-17T04:11:27.705Z,100026.81
2022-08-17T04:13:51.054Z,100018.84
2022-08-17T04:16:14.279Z,100026.19
2022-08-17T04:18:37.546Z,100028.34
2022-08-17T04:21:00.762Z,100033.84
2022-08-17T04:23:28.274Z,100033.53
2022-08-17T04:25:51.767Z,100035.88
2022-08-17T04:28:16.582Z,100028.63
2022-08-17T04:30:39.998Z,100033.22
2022-08-17T04:33:10.022Z,100041.66
2022-08-17T04:35:34.399Z,100036.25
2022-08-17T04:37:58.034Z,100032.03
2022-08-17T04:40:39.091Z,100035.22
2022-08-17T04:43:03.671Z,100030.66
2022-08-17T04:45:31.999Z,100033.19
2022-08-17T04:47:55.401Z,100026.75
2022-08-17T04:50:18.895Z,100043.75
2022-08-17T04:52:46.685Z,100032.84
2022-08-17T04:55:10.603Z,100039.69
2022-08-17T04:57:39.388Z,100029.28
2022-08-17T05:00:06.300Z,100037.25
2022-08-17T05:02:32.103Z,100040.47
2022-08-17T05:04:55.401Z,100046.41
2022-08-17T05:07:23.070Z,100043.41
2022-08-17T05:09:47.358Z,100052.34
2022-08-17T05:12:10.727Z,100047.59
2022-08-17T05:14:34.065Z,100050.38
2022-08-17T05:16:57.389Z,100056.06
2022-08-17T05:19:22.111Z,100050.13
2022-08-17T05:21:45.649Z,100055.69
2022-08-17T05:24:17.638Z,100061.78
2022-08-17T05:26:52.391Z,100059.69
2022-08-17T05:29:15.639Z,100064.41
2022-08-17T05:31:39.021Z,100063.75
2022-08-17T05:34:02.308Z,100067.53
2022-08-17T05:36:42.266Z,100074.63
2022-08-17T05:39:07.638Z,100068.97
2022-08-17T05:41:30.857Z,100070.66
2022-08-17T05:43:56.504Z,100065.34
2022-08-17T05:46:21.542Z,100046.72
2022-08-17T05:48:46.595Z,100065.56
2022-08-17T05:51:37.594Z,100067.78
2022-08-17T05:54:08.608Z,100070.38
2022-08-17T05:56:39.461Z,100072.72
2022-08-17T05:59:05.018Z,100075.78
2022-08-17T06:01:36.392Z,100052.16
2022-08-17T06:04:04.132Z,100073.25
2022-08-17T06:06:35.496Z,100074.38
2022-08-17T06:09:07.394Z,100067.00
2022-08-17T06:11:35.323Z,100068.03
2022-08-17T06:14:15.514Z,100069.34
2022-08-17T06:16:40.155Z,100065.44
2022-08-17T06:19:04.903Z,100065.63
2022-08-17T06:21:31.965Z,100063.28
2022-08-17T06:23:59.570Z,100062.38
2022-08-17T06:26:27.489Z,100061.81
2022-08-17T06:28:59.811Z,100049.03
2022-08-17T06:31:29.320Z,100061.59
2022-08-17T06:33:52.588Z,100070.31
2022-08-17T06:36:26.474Z,100065.00
2022-08-17T06:38:53.813Z,100063.59
2022-08-17T06:41:19.782Z,100059.13
2022-08-17T06:43:54.311Z,100063.03
2022-08-17T06:46:20.841Z,100064.06
2022-08-17T06:48:46.812Z,100065.00
2022-08-17T06:51:15.541Z,100061.41
2022-08-17T06:53:42.099Z,100061.13
2022-08-17T06:56:07.318Z,100065.16
2022-08-17T06:58:33.309Z,100064.59
2022-08-17T07:00:59.145Z,100063.84
2022-08-17T07:03:30.199Z,100067.75
2022-08-17T07:05:54.325Z,100063.38
2022-08-17T07:08:19.262Z,100060.94
2022-08-17T07:10:46.007Z,100048.34
2022-08-17T07:13:18.582Z,100061.63
2022-08-17T07:15:43.662Z,100060.22
2022-08-17T07:18:06.975Z,100063.38
2022-08-17T07:20:31.319Z,100055.25
2022-08-17T07:23:00.300Z,100057.63
2022-08-17T07:25:24.011Z,100064.03
2022-08-17T07:27:51.254Z,100059.50
2022-08-17T07:30:17.667Z,100063.03
2022-08-17T07:32:45.283Z,100052.06
2022-08-17T07:35:15.515Z,100060.81
2022-08-17T07:37:40.141Z,100070.41
2022-08-17T07:40:15.965Z,100062.31
2022-08-17T07:42:44.922Z,100063.97
2022-08-17T07:45:31.245Z,100062.97
2022-08-17T07:48:21.649Z,100062.78
2022-08-17T07:50:49.711Z,100068.84
2022-08-17T07:53:17.899Z,100068.84
2022-08-17T07:55:41.918Z,100068.84
2022-08-17T07:58:05.581Z,100064.06
2022-08-17T08:00:32.031Z,100060.34
2022-08-17T08:03:13.312Z,100058.47
2022-08-17T08:05:50.178Z,100063.69
2022-08-17T08:08:22.589Z,100051.38
2022-08-17T08:10:47.269Z,100058.09
2022-08-17T08:13:12.178Z,100052.50
2022-08-17T08:15:39.562Z,100052.28
2022-08-17T08:18:38.683Z,100051.47
2022-08-17T08:21:09.567Z,100053.63
2022-08-17T08:23:44.602Z,100055.94
2022-08-17T08:26:18.561Z,100056.03
2022-08-17T08:28:46.244Z,100061.47
2022-08-17T08:31:13.012Z,100058.38
2022-08-17T08:33:46.873Z,100059.28
2022-08-17T08:37:14.974Z,100063.50
2022-08-17T08:39:02.217Z,100055.38
2022-08-17T08:41:31.659Z,100051.84
2022-08-17T08:44:05.078Z,100056.03
2022-08-17T08:46:31.140Z,100048.91
2022-08-17T08:49:12.655Z,100040.25
2022-08-17T08:51:42.021Z,100040.16
2022-08-17T08:54:09.733Z,100050.63
2022-08-17T08:56:36.484Z,100051.63
2022-08-17T08:59:03.245Z,100049.38
2022-08-17T09:01:29.508Z,100049.28
2022-08-17T09:04:25.203Z,100045.75
2022-08-17T09:06:52.074Z,100041.34
2022-08-17T09:09:20.340Z,100046.97
2022-08-17T09:12:01.313Z,100051.78
2022-08-17T09:14:29.377Z,100052.63
2022-08-17T09:16:58.996Z,100046.59
2022-08-17T09:19:30.068Z,100039.00
2022-08-17T09:21:55.119Z,100031.66
2022-08-17T09:24:22.937Z,100048.47
2022-08-17T09:26:49.322Z,100034.84
2022-08-17T09:29:15.350Z,100050.97
2022-08-17T09:31:48.724Z,100035.00
2022-08-17T09:34:14.270Z,100046.38
2022-08-17T09:36:42.532Z,100047.03
2022-08-17T09:39:08.630Z,100044.34
2022-08-17T09:41:35.159Z,100040.59
2022-08-17T09:44:01.499Z,100038.91
2022-08-17T09:46:27.750Z,100033.59
2022-08-17T09:48:55.313Z,100038.34
2022-08-17T09:51:21.647Z,100039.44
2022-08-17T09:53:46.260Z,100041.13
2022-08-17T09:56:34.970Z,100040.75
2022-08-17T09:59:20.176Z,100035.31
2022-08-17T10:01:45.881Z,100025.25
2022-08-17T10:04:20.315Z,100041.22
2022-08-17T10:06:47.744Z,100036.66
2022-08-17T10:09:15.615Z,100035.63
2022-08-17T10:11:58.608Z,100045.44
2022-08-17T10:14:37.517Z,100038.97
2022-08-17T10:17:14.788Z,100028.03
2022-08-17T10:19:44.155Z,100026.78
2022-08-17T10:22:35.525Z,100020.91
2022-08-17T10:25:22.720Z,100033.69
2022-08-17T10:27:51.704Z,100034.34
2022-08-17T10:30:15.064Z,100022.69
2022-08-17T10:32:40.835Z,100016.59
2022-08-17T10:35:13.194Z,100019.13
2022-08-17T10:38:05.015Z,100013.56
2022-08-17T10:40:36.431Z,100010.59
2022-08-17T10:43:01.730Z,100005.59
2022-08-17T10:45:27.058Z,100015.13
2022-08-17T10:48:05.030Z,100005.97
2022-08-17T10:50:50.438Z,100004.09
2022-08-17T10:53:35.982Z,100001.56
2022-08-17T10:56:21.838Z,100000.56
2022-08-17T10:58:47.420Z,99997.63
2022-08-17T11:01:12.868Z,99994.28
2022-08-17T11:03:36.309Z,99987.00
2022-08-17T11:06:03.756Z,99985.13
2022-08-17T11:08:56.639Z,99988.47
2022-08-17T11:11:34.516Z,99979.72
2022-08-17T11:14:07.636Z,99971.59
2022-08-17T11:16:38.295Z,99981.75
2022-08-17T11:19:34.685Z,99985.97
2022-08-17T11:22:12.936Z,99984.09
2022-08-17T11:24:36.531Z,99992.56
2022-08-17T11:27:07.675Z,99976.19
2022-08-17T11:29:38.841Z,99999.56
2022-08-17T11:32:05.827Z,100004.16
2022-08-17T11:34:29.267Z,100005.75
2022-08-17T11:37:21.963Z,100007.19
2022-08-17T11:40:14.269Z,100019.72
2022-08-17T11:42:51.428Z,100022.88
2022-08-17T11:45:43.466Z,100020.91
2022-08-17T11:48:31.860Z,100027.44
2022-08-17T11:51:13.304Z,100031.19
2022-08-17T11:56:53.760Z,100029.03
2022-08-17T11:59:58.512Z,100036.28
2022-08-17T12:02:38.781Z,100041.72
2022-08-17T12:05:14.120Z,100030.16
2022-08-17T12:07:42.541Z,100038.34
2022-08-17T12:10:06.224Z,100038.16
2022-08-17T12:12:33.445Z,100059.84
2022-08-17T12:15:10.160Z,100084.44
2022-08-17T12:17:40.815Z,100084.31
2022-08-17T12:20:17.211Z,100082.97
2022-08-17T12:22:44.484Z,100040.28
2022-08-17T12:25:11.090Z,100002.88
2022-08-17T12:28:04.349Z,99996.75
2022-08-17T12:30:21.236Z,100007.13
2022-08-17T12:32:47.703Z,100005.50
2022-08-17T12:35:20.598Z,99998.88
2022-08-17T12:37:46.780Z,99998.66
2022-08-17T12:40:20.103Z,100002.22
2022-08-17T12:42:54.573Z,100000.53
2022-08-17T12:45:24.967Z,100009.72
2022-08-17T12:47:48.319Z,99999.03
2022-08-17T12:50:28.477Z,99999.50
2022-08-17T12:52:59.663Z,99995.50
2022-08-17T12:55:26.285Z,99992.16
2022-08-17T12:57:58.084Z,99992.16
2022-08-17T13:00:28.521Z,99991.31
2022-08-17T13:02:53.252Z,99993.19
2022-08-17T13:05:27.714Z,99998.59
2022-08-17T13:07:53.177Z,100003.00
2022-08-17T13:10:22.641Z,100003.19
2022-08-17T13:12:45.929Z,99993.38
2022-08-17T13:15:10.218Z,99995.88
2022-08-17T13:17:36.106Z,99994.88
2022-08-17T13:19:59.376Z,99998.22
2022-08-17T13:22:23.879Z,99991.75
2022-08-17T13:24:53.174Z,99983.81
2022-08-17T13:27:17.680Z,99986.97
2022-08-17T13:29:41.481Z,99979.91
2022-08-17T13:32:16.783Z,99982.22
2022-08-17T13:35:12.390Z,99973.81
2022-08-17T13:37:32.736Z,99986.22
2022-08-17T13:39:56.127Z,99989.53
2022-08-17T13:42:51.880Z,99983.94
2022-08-17T13:45:43.546Z,99981.41
2022-08-17T13:48:12.352Z,99986.88
2022-08-17T13:50:40.187Z,99990.03
2022-08-17T13:53:03.466Z,99977.31
2022-08-17T13:55:26.771Z,99985.00
2022-08-17T13:58:03.639Z,99982.66
2022-08-17T14:00:32.796Z,99986.84
2022-08-17T14:02:56.075Z,99989.59
2022-08-17T14:05:19.527Z,99987.09
2022-08-17T14:07:44.402Z,99996.28
2022-08-17T14:10:11.212Z,99986.50
2022-08-17T14:12:35.188Z,99988.19
2022-08-17T14:14:58.924Z,99984.66
2022-08-17T14:17:22.894Z,99978.19
2022-08-17T14:19:46.173Z,99970.63
2022-08-17T14:22:12.163Z,99985.63
2022-08-17T14:24:44.668Z,99986.28
2022-08-17T14:27:09.094Z,99979.03
2022-08-17T14:29:33.331Z,99970.88
2022-08-17T14:31:56.622Z,99981.94
2022-08-17T14:34:19.937Z,99978.56
2022-08-17T14:36:45.487Z,99981.28
2022-08-17T14:39:11.858Z,99991.09
2022-08-17T14:41:36.931Z,100001.50
2022-08-17T14:44:01.530Z,100004.03
2022-08-17T14:46:26.530Z,100007.97
2022-08-17T14:48:57.194Z,100007.69
2022-08-17T14:51:21.967Z,100023.19
2022-08-17T14:53:45.869Z,100026.50
2022-08-17T14:56:09.229Z,100025.81
2022-08-17T14:58:33.867Z,100014.97
2022-08-17T15:00:57.267Z,100016.66
2022-08-17T15:03:20.660Z,100020.03
2022-08-17T15:05:45.519Z,100016.66
2022-08-17T15:08:08.874Z,100010.84
2022-08-17T15:10:32.259Z,100007.56
2022-08-17T15:12:56.220Z,100004.03
2022-08-17T15:15:21.170Z,100007.56
2022-08-17T15:17:54.721Z,100014.66
2022-08-17T15:20:18.934Z,100004.41
2022-08-17T15:22:42.365Z,100005.41
2022-08-17T15:25:06.670Z,100005.63
2022-08-17T15:27:32.490Z,100013.94
2022-08-17T15:29:56.260Z,100014.97
2022-08-17T15:32:28.133Z,100011.44
2022-08-17T15:34:51.501Z,100007.91
2022-08-17T15:37:14.768Z,100002.25
2022-08-17T15:39:38.101Z,100004.59
2022-08-17T15:42:04.645Z,100001.69
2022-08-17T15:44:32.669Z,100000.88
2022-08-17T15:46:59.103Z,99995.88
2022-08-17T15:49:23.678Z,100001.94
2022-08-17T15:51:47.007Z,99999.22
2022-08-17T15:54:19.226Z,99996.91
2022-08-17T15:56:46.193Z,100009.44
2022-08-17T15:59:09.762Z,100009.63
2022-08-17T16:02:20.012Z,100017.56
2022-08-17T16:04:30.382Z,100016.94
2022-08-17T16:06:55.805Z,100014.00
2022-08-17T16:09:19.064Z,100012.34
2022-08-17T16:11:45.981Z,100009.84
2022-08-17T16:14:17.023Z,100013.56
2022-08-17T16:16:41.833Z,100009.00
2022-08-17T16:19:05.200Z,100018.97
2022-08-17T16:21:31.313Z,100021.50
2022-08-17T16:24:13.139Z,100029.81
2022-08-17T16:26:37.345Z,100028.16
2022-08-17T16:29:01.147Z,100032.53
2022-08-17T16:31:24.674Z,100029.19
2022-08-17T16:34:03.817Z,100028.38
2022-08-17T16:36:31.561Z,100031.06
2022-08-17T16:38:54.795Z,100025.00
2022-08-17T16:41:33.347Z,100035.00
2022-08-17T16:43:56.959Z,100029.75
2022-08-17T16:46:20.277Z,100036.22
2022-08-17T16:48:44.527Z,100035.56
2022-08-17T16:51:08.463Z,100039.97
2022-08-17T16:53:31.789Z,100032.69
2022-08-17T16:55:56.587Z,100030.16
2022-08-17T16:58:21.278Z,100029.97
2022-08-17T17:00:45.277Z,100031.00
2022-08-17T17:03:19.865Z,100045.41
2022-08-17T17:05:57.612Z,100042.88
2022-08-17T17:08:25.659Z,100043.91
2022-08-17T17:10:51.292Z,100034.72
2022-08-17T17:13:15.788Z,100046.63
2022-08-17T17:15:55.061Z,100036.59
2022-08-17T17:18:18.478Z,100047.44
2022-08-17T17:20:47.601Z,100050.38
2022-08-17T17:23:14.412Z,100052.88
2022-08-17T17:25:40.664Z,100056.19
2022-08-17T17:28:09.314Z,100062.22
2022-08-17T17:30:36.369Z,100066.63
2022-08-17T17:33:04.674Z,100058.06
2022-08-17T17:35:31.774Z,100066.19
2022-08-17T17:37:57.389Z,100065.72
2022-08-17T17:40:23.153Z,100061.78
2022-08-17T17:42:46.745Z,100072.22
2022-08-17T17:45:16.979Z,100061.69
2022-08-17T17:47:40.339Z,100075.59
2022-08-17T17:50:06.292Z,100073.28
2022-08-17T17:52:36.247Z,100070.69
2022-08-17T17:55:05.414Z,100081.53
2022-08-17T17:57:34.823Z,100080.16
2022-08-17T18:00:01.922Z,100081.47
2022-08-17T18:02:51.485Z,100080.22
2022-08-17T18:05:23.182Z,100083.69
2022-08-17T18:07:50.631Z,100079.38
2022-08-17T18:10:19.716Z,100087.13
2022-08-17T18:12:55.322Z,100091.13
2022-08-17T18:15:23.441Z,100083.66
2022-08-17T18:18:02.138Z,100093.66
2022-08-17T18:20:36.458Z,100097.91
2022-08-17T18:23:06.944Z,100102.19
2022-08-17T18:25:48.926Z,100100.53
2022-08-17T18:28:23.037Z,100105.13
2022-08-17T18:30:48.473Z,100112.59
2022-08-17T18:33:22.969Z,100120.78
2022-08-17T18:35:58.902Z,100122.19
2022-08-17T18:38:29.917Z,100122.78
2022-08-17T18:41:06.050Z,100122.97
2022-08-17T18:43:44.181Z,100115.41
2022-08-17T18:46:29.888Z,100116.72
2022-08-17T18:48:54.948Z,100114.75
2022-08-17T18:51:37.266Z,100114.75
2022-08-17T18:54:08.019Z,100120.72
2022-08-17T18:56:32.024Z,100113.25
2022-08-17T18:59:02.104Z,100116.78
2022-08-17T19:01:46.904Z,100116.41
2022-08-17T19:04:11.979Z,100105.03
2022-08-17T19:06:36.736Z,100114.91
2022-08-17T19:09:00.719Z,100107.25
2022-08-17T19:11:26.382Z,100107.75
2022-08-17T19:13:54.271Z,100104.63
2022-08-17T19:16:20.117Z,100090.91
2022-08-17T19:18:45.888Z,100095.63
2022-08-17T19:21:11.161Z,100089.72
2022-08-17T19:23:38.884Z,100098.31
2022-08-17T19:26:51.209Z,100094.38
2022-08-17T19:29:08.199Z,100093.94
2022-08-17T19:31:33.021Z,100093.00
2022-08-17T19:33:56.378Z,100086.84
2022-08-17T19:36:34.559Z,100079.53
2022-08-17T19:39:03.426Z,100096.50
2022-08-17T19:41:29.366Z,100073.66
2022-08-17T19:44:07.101Z,100079.91
2022-08-17T19:46:35.780Z,100079.25
2022-08-17T19:49:03.850Z,100090.97
2022-08-17T19:51:30.439Z,100084.75
2022-08-17T19:54:06.039Z,100094.38
2022-08-17T19:56:34.918Z,100089.72
2022-08-17T19:59:01.208Z,100097.50
2022-08-17T20:01:34.418Z,100083.13
2022-08-17T20:03:59.335Z,100093.53
2022-08-17T20:06:22.637Z,100088.41
2022-08-17T20:08:49.991Z,100096.63
2022-08-17T20:11:16.698Z,100096.28
2022-08-17T20:13:42.950Z,100093.75
2022-08-17T20:16:06.496Z,100095.78
2022-08-17T20:18:38.064Z,100109.13
2022-08-17T20:21:20.257Z,100110.16
2022-08-17T20:23:50.509Z,100108.78
2022-08-17T20:26:19.521Z,100106.72
2022-08-17T20:29:10.554Z,100110.28
2022-08-17T20:31:42.646Z,100109.25
2022-08-17T20:34:37.061Z,100115.78
2022-08-17T20:37:02.722Z,100100.00
2022-08-17T20:39:31.727Z,100116.16
2022-08-17T20:42:09.966Z,100113.81
2022-08-17T20:44:35.140Z,100112.16
2022-08-17T20:46:59.611Z,100115.78
2022-08-17T20:49:27.086Z,100107.38
2022-08-17T20:52:01.779Z,100108.69
2022-08-17T20:54:44.315Z,100111.13
2022-08-17T20:57:14.039Z,100105.97
2022-08-17T21:00:04.408Z,100109.50
2022-08-17T21:02:28.999Z,100102.94
2022-08-17T21:05:30.217Z,100103.63
2022-08-17T21:07:55.904Z,100103.47
2022-08-17T21:10:20.388Z,100106.22
2022-08-17T21:12:44.739Z,100098.41
2022-08-17T21:15:09.600Z,100103.88
2022-08-17T21:17:44.739Z,100110.69
2022-08-17T21:20:14.575Z,100108.56
2022-08-17T21:22:44.185Z,100110.59
2022-08-17T21:25:14.816Z,100099.06
2022-08-17T21:27:42.102Z,100105.31
2022-08-17T21:30:32.284Z,100110.22
2022-08-17T21:33:20.262Z,100108.34
2022-08-17T21:35:48.525Z,100100.81
2022-08-17T21:38:13.858Z,100104.03
2022-08-17T21:40:37.193Z,100101.88
2022-08-17T21:43:08.418Z,100092.56
2022-08-17T21:45:35.588Z,100096.75
2022-08-17T21:48:11.067Z,100089.19
2022-08-17T21:50:34.306Z,100084.97
2022-08-17T21:52:57.673Z,100082.50
2022-08-17T21:55:23.046Z,100090.63
2022-08-17T21:58:13.540Z,100085.94
2022-08-17T22:00:32.706Z,100086.75
2022-08-17T22:02:57.189Z,100083.53
2022-08-17T22:05:28.486Z,100097.53
2022-08-17T22:07:52.720Z,100095.19
2022-08-17T22:10:30.856Z,100090.91
2022-08-17T22:13:03.425Z,100090.06
2022-08-17T22:15:26.718Z,100095.19
2022-08-17T22:17:51.422Z,100085.88
2022-08-17T22:20:16.841Z,100079.16
2022-08-17T22:22:54.953Z,100080.63
2022-08-17T22:25:21.609Z,100083.06
2022-08-17T22:27:46.729Z,100078.00
2022-08-17T22:30:17.723Z,100079.09
2022-08-17T22:32:42.793Z,100076.81
2022-08-17T22:35:26.468Z,100080.59
2022-08-17T22:37:49.914Z,100076.34
2022-08-17T22:40:13.384Z,100072.22
2022-08-17T22:42:36.969Z,100079.34
2022-08-17T22:45:00.224Z,100069.53
2022-08-17T22:47:30.508Z,100072.53
2022-08-17T22:49:57.484Z,100077.56
2022-08-17T22:52:32.560Z,100073.28
2022-08-17T22:55:20.338Z,100079.09
2022-08-17T22:58:04.979Z,100072.03
2022-08-17T23:00:29.103Z,100067.66
2022-08-17T23:03:15.967Z,100063.72
2022-08-17T23:05:41.978Z,100067.81
2022-08-17T23:08:06.760Z,100064.00
2022-08-17T23:10:30.197Z,100060.91
2022-08-17T23:12:53.465Z,100061.09
2022-08-17T23:15:18.616Z,100062.72
2022-08-17T23:17:42.077Z,100072.53
2022-08-17T23:20:08.322Z,100073.31
2022-08-17T23:22:31.755Z,100074.94
2022-08-17T23:24:58.591Z,100074.16
2022-08-17T23:27:22.208Z,100065.94
2022-08-17T23:29:47.121Z,100064.06
2022-08-17T23:32:11.715Z,100061.56
2022-08-17T23:34:35.186Z,100056.19
2022-08-17T23:36:58.479Z,100068.88
2022-08-17T23:39:24.651Z,100060.63
2022-08-17T23:41:53.482Z,100057.63
2022-08-17T23:44:16.753Z,100061.66
2022-08-17T23:46:40.716Z,100058.97
2022-08-17T23:49:03.934Z,100062.03
2022-08-17T23:51:28.973Z,100056.75
2022-08-17T23:53:53.832Z,100064.06
2022-08-17T23:56:21.176Z,100055.88
2022-08-17T23:58:45.967Z,100063.50
